Pagrindinis puslapis
METAR-TAF:

METAR-TAF

Oro uostai :

Salta, Argentina

platuma: 24-51S, ilguma: 065-29W, Aukštis: 1238 m

Dabartinis oras

Ataskaita buvo paskelbta 47 minutes, ne 16:00 UTC
Vėjas 2 kt iš Šiaurės Rytų
Temperatūra 30°C
Drėgmė 21%
Slėgis 1008 hPa
Matomumas 10 km arba daugiau
nėra debesų žemiau 1500 m ir nėra kamuolinių lietaus debesų

METAR: SASA 151600Z 05002KT CAVOK 30/05 Q1008

Laikas: 13:47 (16:47 UTC)

Prognozė

Ataskaita buvo paskelbta 5 valandos ir 47 minutes, ne 11:00 UTC
Prognozė galioja nuo 15 metu 12 UTC su 16 metu 12 UTC
Vėjas 3 kt nuo kintamojo kryptimis
Matomumas 10 km arba daugiau
nėra debesų žemiau 1500 m ir nėra kamuolinių lietaus debesų
Tapsmas
nuo 15 metu 14 UTC su 15 metu 17 UTC
Vėjas 10 kt iš Šiaurės Rytų

TAF: SASA 151100Z 1512/1612 VRB03KT CAVOK TX34/1518Z TN12/1610Z BECMG 1514/1517 05010KT

Orai ataskaitas ir orų prognozės (METAR, TAF).

turimą stotys yra geltonos ir raudonos taškus žemėlapyje.

Perkelti pele per norėdami pamatyti stoties vardą.

Tada spustelėkite, norėdami matyti oro stebėjimo ir prognozės.

Norėdami pakeisti žemėlapį: spustelėkite ant žalios mygtukų su juodo kryžiaus žemyn,; žalią mygtuką su brūkšneliu, jei norite nutolinti; arba žalių rodyklių gretimoms žemėlapius.


METAR-TAF: